createdAt,value
2022-08-30T00:01:29.751Z,58.23
2022-08-30T00:03:58.626Z,58.48
2022-08-30T00:06:28.666Z,58.59
2022-08-30T00:08:56.382Z,58.66
2022-08-30T00:11:26.993Z,58.51
2022-08-30T00:13:56.426Z,58.61
2022-08-30T00:16:26.318Z,58.65
2022-08-30T00:18:54.625Z,58.67
2022-08-30T00:21:22.616Z,58.81
2022-08-30T00:23:50.282Z,58.66
2022-08-30T00:26:17.806Z,58.88
2022-08-30T00:28:45.305Z,58.95
2022-08-30T00:31:15.170Z,59.00
2022-08-30T00:33:43.527Z,59.05
2022-08-30T00:36:11.130Z,59.09
2022-08-30T00:38:38.595Z,59.31
2022-08-30T00:41:06.926Z,59.38
2022-08-30T00:43:36.881Z,59.40
2022-08-30T00:46:08.708Z,59.32
2022-08-30T00:48:41.106Z,59.53
2022-08-30T00:51:12.663Z,59.71
2022-08-30T00:53:45.184Z,59.78
2022-08-30T00:56:13.673Z,59.82
2022-08-30T00:58:47.276Z,59.76
2022-08-30T01:01:15.134Z,59.97
2022-08-30T01:03:44.645Z,59.90
2022-08-30T01:06:15.635Z,60.08
2022-08-30T01:08:46.197Z,60.22
2022-08-30T01:11:17.202Z,60.04
2022-08-30T01:13:47.583Z,60.35
2022-08-30T01:16:15.767Z,60.11
2022-08-30T01:18:44.610Z,60.39
2022-08-30T01:21:37.037Z,60.49
2022-08-30T01:24:05.614Z,60.09
2022-08-30T01:26:35.154Z,60.23
2022-08-30T01:29:07.466Z,60.37
2022-08-30T01:31:36.937Z,60.35
2022-08-30T01:34:07.572Z,60.40
2022-08-30T01:36:44.921Z,60.29
2022-08-30T01:39:17.691Z,60.37
2022-08-30T01:41:45.912Z,60.48
2022-08-30T01:44:14.573Z,60.53
2022-08-30T01:46:46.272Z,60.62
2022-08-30T01:49:16.288Z,60.53
2022-08-30T01:51:44.256Z,60.55
2022-08-30T01:54:12.615Z,60.91
2022-08-30T01:56:40.395Z,60.79
2022-08-30T01:59:07.839Z,60.86
2022-08-30T02:01:37.035Z,60.95
2022-08-30T02:04:06.431Z,60.88
2022-08-30T02:06:34.609Z,61.00
2022-08-30T02:09:02.052Z,60.96
2022-08-30T02:11:29.599Z,60.94
2022-08-30T02:13:57.046Z,61.10
2022-08-30T02:16:25.684Z,61.22
2022-08-30T02:18:56.988Z,61.36
2022-08-30T02:21:27.517Z,61.46
2022-08-30T02:23:55.884Z,61.53
2022-08-30T02:26:24.853Z,61.62
2022-08-30T02:28:53.173Z,61.60
2022-08-30T02:31:22.347Z,61.53
2022-08-30T02:33:52.970Z,61.55
2022-08-30T02:36:21.568Z,61.69
2022-08-30T02:38:51.199Z,61.61
2022-08-30T02:41:20.164Z,61.65
2022-08-30T02:43:47.644Z,61.65
2022-08-30T02:46:16.029Z,61.77
2022-08-30T02:48:44.470Z,61.88
2022-08-30T02:51:14.422Z,61.84
2022-08-30T02:53:43.826Z,62.00
2022-08-30T02:56:13.502Z,62.07
2022-08-30T02:58:42.399Z,62.06
2022-08-30T03:01:14.901Z,62.04
2022-08-30T03:03:45.612Z,62.08
2022-08-30T03:06:14.523Z,62.02
2022-08-30T03:08:42.496Z,62.09
2022-08-30T03:11:10.669Z,62.12
2022-08-30T03:13:38.228Z,61.98
2022-08-30T03:16:05.774Z,61.96
2022-08-30T03:18:33.426Z,62.12
2022-08-30T03:21:00.897Z,62.07
2022-08-30T03:23:28.581Z,62.05
2022-08-30T03:25:57.232Z,62.18
2022-08-30T03:28:24.656Z,62.07
2022-08-30T03:30:52.156Z,62.24
2022-08-30T03:33:20.171Z,62.27
2022-08-30T03:35:49.577Z,62.35
2022-08-30T03:38:17.559Z,62.33
2022-08-30T03:40:45.117Z,62.11
2022-08-30T03:43:12.715Z,62.28
2022-08-30T03:45:40.487Z,62.52
2022-08-30T03:48:07.972Z,62.38
2022-08-30T03:50:36.800Z,62.40
2022-08-30T03:53:04.458Z,62.46
2022-08-30T03:55:32.021Z,62.49
2022-08-30T03:57:59.414Z,62.44
2022-08-30T04:00:27.035Z,62.63
2022-08-30T04:02:54.463Z,62.57
2022-08-30T04:05:21.911Z,62.72
2022-08-30T04:07:49.380Z,62.74
2022-08-30T04:10:17.271Z,62.69
2022-08-30T04:12:49.367Z,62.65
2022-08-30T04:15:19.286Z,62.75
2022-08-30T04:17:48.858Z,62.87
2022-08-30T04:20:16.570Z,62.87
2022-08-30T04:22:44.072Z,62.90
2022-08-30T04:25:15.489Z,62.89
2022-08-30T04:27:45.729Z,62.97
2022-08-30T04:30:15.599Z,62.79
2022-08-30T04:32:44.765Z,63.08
2022-08-30T04:35:13.624Z,63.10
2022-08-30T04:37:41.323Z,63.14
2022-08-30T04:40:10.411Z,63.08
2022-08-30T04:42:38.211Z,63.18
2022-08-30T04:45:09.883Z,63.07
2022-08-30T04:47:39.156Z,63.16
2022-08-30T04:50:09.296Z,63.31
2022-08-30T04:52:37.286Z,63.11
2022-08-30T04:55:06.704Z,63.17
2022-08-30T04:57:35.022Z,63.42
2022-08-30T05:00:05.605Z,63.35
2022-08-30T05:02:33.153Z,63.53
2022-08-30T05:05:18.033Z,63.33
2022-08-30T05:07:45.461Z,63.46
2022-08-30T05:10:13.147Z,63.50
2022-08-30T05:12:43.144Z,63.49
2022-08-30T05:15:12.185Z,63.63
2022-08-30T05:17:40.907Z,63.54
2022-08-30T05:20:10.692Z,63.43
2022-08-30T05:22:50.038Z,63.43
2022-08-30T05:25:25.012Z,63.56
2022-08-30T05:27:53.526Z,63.54
2022-08-30T05:30:22.053Z,63.53
2022-08-30T05:32:50.584Z,63.58
2022-08-30T05:35:23.477Z,63.48
2022-08-30T05:37:53.650Z,63.56
2022-08-30T05:40:22.433Z,63.44
2022-08-30T05:42:50.614Z,63.60
2022-08-30T05:45:18.067Z,63.55
2022-08-30T05:47:47.465Z,63.45
2022-08-30T05:50:14.922Z,63.53
2022-08-30T05:52:45.051Z,63.56
2022-08-30T05:55:13.192Z,63.58
2022-08-30T05:57:41.731Z,63.52
2022-08-30T06:00:15.629Z,63.54
2022-08-30T06:02:43.865Z,63.54
2022-08-30T06:05:14.498Z,63.43
2022-08-30T06:07:43.479Z,63.49
2022-08-30T06:10:12.319Z,63.66
2022-08-30T06:12:40.275Z,63.65
2022-08-30T06:15:08.332Z,63.52
2022-08-30T06:17:35.873Z,63.37
2022-08-30T06:20:03.778Z,63.22
2022-08-30T06:22:31.296Z,63.24
2022-08-30T06:24:58.756Z,63.18
2022-08-30T06:27:26.230Z,63.12
2022-08-30T06:29:53.885Z,62.95
2022-08-30T06:32:22.290Z,62.90
2022-08-30T06:34:49.842Z,62.76
2022-08-30T06:37:29.129Z,62.86
2022-08-30T06:39:59.481Z,63.00
2022-08-30T06:42:32.000Z,62.85
2022-08-30T06:45:01.263Z,62.89
2022-08-30T06:47:29.692Z,62.86
2022-08-30T06:49:57.977Z,63.01
2022-08-30T06:52:25.468Z,62.80
2022-08-30T06:54:55.281Z,62.65
2022-08-30T06:57:22.740Z,62.49
2022-08-30T06:59:53.142Z,62.64
2022-08-30T07:02:25.843Z,62.57
2022-08-30T07:04:53.664Z,62.62
2022-08-30T07:07:21.146Z,62.59
2022-08-30T07:09:48.790Z,62.54
2022-08-30T07:12:17.201Z,62.54
2022-08-30T07:14:44.762Z,62.48
2022-08-30T07:17:32.593Z,62.41
2022-08-30T07:20:04.410Z,62.16
2022-08-30T07:22:34.759Z,62.20
2022-08-30T07:25:02.302Z,62.11
2022-08-30T07:27:30.853Z,61.87
2022-08-30T07:29:59.393Z,61.82
2022-08-30T07:32:26.885Z,61.93
2022-08-30T07:34:54.370Z,61.79
2022-08-30T07:37:21.992Z,61.86
2022-08-30T07:39:49.498Z,61.73
2022-08-30T07:42:20.152Z,61.56
2022-08-30T07:44:47.594Z,61.55
2022-08-30T07:47:16.688Z,61.25
2022-08-30T07:49:44.297Z,60.95
2022-08-30T07:52:12.346Z,60.73
2022-08-30T07:54:40.084Z,60.56
2022-08-30T07:57:07.882Z,60.68
2022-08-30T07:59:36.217Z,60.57
2022-08-30T08:02:04.619Z,60.39
2022-08-30T08:04:33.101Z,60.23
2022-08-30T08:07:01.012Z,60.19
2022-08-30T08:09:28.481Z,59.96
2022-08-30T08:11:56.064Z,60.03
2022-08-30T08:14:23.606Z,59.62
2022-08-30T08:16:51.695Z,59.59
2022-08-30T08:19:19.545Z,59.46
2022-08-30T08:21:48.635Z,59.49
2022-08-30T08:24:17.917Z,59.02
2022-08-30T08:26:45.620Z,59.11
2022-08-30T08:29:13.375Z,58.89
2022-08-30T08:31:42.050Z,58.79
2022-08-30T08:34:11.674Z,58.73
2022-08-30T08:36:40.374Z,58.53
2022-08-30T08:39:09.416Z,58.58
2022-08-30T08:42:04.366Z,58.23
2022-08-30T08:44:56.895Z,58.22
2022-08-30T08:47:40.633Z,58.03
2022-08-30T08:50:18.609Z,57.98
2022-08-30T08:53:13.401Z,57.95
2022-08-30T08:55:51.576Z,57.81
2022-08-30T08:58:25.992Z,57.70
2022-08-30T09:00:56.362Z,57.49
2022-08-30T09:03:26.680Z,57.46
2022-08-30T09:05:55.448Z,57.26
2022-08-30T09:08:23.419Z,57.07
2022-08-30T09:10:59.602Z,57.24
2022-08-30T09:13:27.555Z,57.21
2022-08-30T09:15:57.381Z,57.13
2022-08-30T09:21:35.529Z,56.54
2022-08-30T09:24:08.706Z,56.58
2022-08-30T09:26:38.138Z,56.63
2022-08-30T09:29:16.087Z,56.11
2022-08-30T09:32:10.040Z,55.66
2022-08-30T09:34:43.674Z,55.67
2022-08-30T09:37:26.493Z,55.64
2022-08-30T09:39:54.110Z,55.72
2022-08-30T09:42:26.483Z,55.72
2022-08-30T09:45:10.178Z,55.66
2022-08-30T09:47:43.472Z,55.19
2022-08-30T09:50:24.246Z,55.23
2022-08-30T09:53:01.004Z,55.13
2022-08-30T09:56:00.384Z,55.20
2022-08-30T09:58:49.754Z,54.89
2022-08-30T10:01:24.644Z,54.77
2022-08-30T10:04:22.601Z,54.58
2022-08-30T10:06:52.265Z,54.33
2022-08-30T10:09:30.383Z,54.00
2022-08-30T10:12:28.368Z,53.84
2022-08-30T10:15:18.540Z,53.97
2022-08-30T10:17:45.980Z,54.14
2022-08-30T10:20:13.427Z,54.24
2022-08-30T10:22:50.919Z,54.21
2022-08-30T10:25:28.726Z,54.11
2022-08-30T10:28:10.126Z,54.12
2022-08-30T10:30:42.181Z,54.04
2022-08-30T10:33:17.283Z,53.87
2022-08-30T10:35:50.617Z,53.81
2022-08-30T10:38:29.373Z,53.91
2022-08-30T10:41:15.589Z,53.73
2022-08-30T10:44:15.018Z,53.78
2022-08-30T10:47:06.197Z,53.70
2022-08-30T10:49:44.469Z,53.56
2022-08-30T10:52:11.887Z,53.48
2022-08-30T10:54:50.432Z,53.02
2022-08-30T10:57:19.711Z,52.81
2022-08-30T10:59:54.677Z,52.76
2022-08-30T11:02:27.950Z,52.77
2022-08-30T11:05:25.947Z,52.83
2022-08-30T11:07:56.334Z,52.74
2022-08-30T11:10:25.613Z,52.36
2022-08-30T11:13:03.018Z,52.28
2022-08-30T11:15:35.731Z,52.56
2022-08-30T11:18:10.225Z,52.50
2022-08-30T11:20:49.903Z,52.19
2022-08-30T11:23:34.790Z,52.26
2022-08-30T11:26:16.982Z,52.34
2022-08-30T11:28:48.190Z,52.45
2022-08-30T11:31:18.738Z,52.33
2022-08-30T11:33:51.715Z,52.44
2022-08-30T11:36:46.030Z,52.42
2022-08-30T11:39:49.791Z,52.01
2022-08-30T11:42:35.054Z,51.94
2022-08-30T11:45:26.753Z,52.00
2022-08-30T11:48:09.957Z,52.18
2022-08-30T11:50:53.906Z,52.36
2022-08-30T11:53:29.489Z,52.45
2022-08-30T11:56:21.168Z,52.48
2022-08-30T11:58:59.626Z,52.58
2022-08-30T12:01:50.995Z,52.56
2022-08-30T12:04:17.321Z,52.52
2022-08-30T12:06:49.078Z,52.45
2022-08-30T12:09:24.270Z,52.41
2022-08-30T12:11:57.163Z,52.35
2022-08-30T12:14:44.598Z,52.29
2022-08-30T12:17:36.206Z,52.26
2022-08-30T12:20:13.888Z,52.24
2022-08-30T12:22:41.531Z,52.11
2022-08-30T12:25:22.057Z,52.16
2022-08-30T12:27:50.333Z,52.30
2022-08-30T12:30:27.892Z,52.12
2022-08-30T12:32:55.566Z,52.26
2022-08-30T12:35:28.769Z,52.22
2022-08-30T12:38:02.790Z,52.01
2022-08-30T12:40:31.556Z,51.71
2022-08-30T12:43:05.241Z,51.67
2022-08-30T12:45:41.543Z,51.80
2022-08-30T12:48:14.101Z,51.92
2022-08-30T12:50:54.246Z,51.81
2022-08-30T12:53:42.709Z,51.90
2022-08-30T12:56:13.522Z,52.15
2022-08-30T12:58:49.484Z,52.27
2022-08-30T13:01:19.284Z,52.20
2022-08-30T13:03:55.694Z,52.19
2022-08-30T13:06:47.985Z,52.19
2022-08-30T13:09:34.491Z,52.44
2022-08-30T13:12:26.655Z,52.21
2022-08-30T13:15:24.792Z,52.18
2022-08-30T13:18:13.239Z,52.16
2022-08-30T13:20:40.799Z,52.44
2022-08-30T13:23:10.645Z,52.46
2022-08-30T13:25:40.045Z,52.58
2022-08-30T13:28:07.862Z,52.46
2022-08-30T13:30:36.105Z,52.65
2022-08-30T13:33:03.626Z,52.79
2022-08-30T13:35:32.087Z,52.73
2022-08-30T13:38:02.478Z,52.77
2022-08-30T13:40:30.322Z,52.86
2022-08-30T13:42:58.651Z,52.84
2022-08-30T13:45:42.267Z,52.75
2022-08-30T13:48:12.104Z,53.07
2022-08-30T13:50:40.762Z,53.22
2022-08-30T13:53:09.176Z,53.04
2022-08-30T13:55:39.120Z,53.09
2022-08-30T13:58:08.605Z,53.39
2022-08-30T14:00:38.131Z,53.38
2022-08-30T14:03:06.044Z,53.16
2022-08-30T14:06:05.295Z,53.48
2022-08-30T14:11:19.721Z,53.68
2022-08-30T14:16:42.190Z,53.70
2022-08-30T14:19:12.098Z,53.82
2022-08-30T14:21:39.694Z,53.82
2022-08-30T14:24:07.817Z,53.96
2022-08-30T14:26:45.210Z,54.00
2022-08-30T14:29:18.114Z,53.94
2022-08-30T14:31:45.614Z,54.07
2022-08-30T14:34:15.685Z,54.08
2022-08-30T14:36:45.371Z,54.04
2022-08-30T14:39:17.723Z,54.13
2022-08-30T14:41:49.269Z,54.11
2022-08-30T14:44:18.921Z,54.28
2022-08-30T14:46:47.444Z,54.22
2022-08-30T14:49:16.217Z,54.23
2022-08-30T14:51:48.345Z,54.32
2022-08-30T14:54:18.264Z,54.59
2022-08-30T14:56:45.997Z,54.71
2022-08-30T14:59:14.111Z,54.80
2022-08-30T15:01:42.889Z,54.90
2022-08-30T15:04:11.821Z,55.06
2022-08-30T15:06:42.005Z,55.29
2022-08-30T15:09:11.962Z,55.33
2022-08-30T15:11:39.804Z,55.55
2022-08-30T15:14:07.287Z,55.56
2022-08-30T15:16:36.833Z,55.63
2022-08-30T15:19:08.170Z,55.71
2022-08-30T15:21:43.051Z,55.77
2022-08-30T15:24:14.030Z,56.01
2022-08-30T15:26:44.065Z,56.02
2022-08-30T15:29:14.641Z,56.16
2022-08-30T15:31:43.954Z,56.27
2022-08-30T15:34:14.469Z,56.20
2022-08-30T15:36:44.028Z,56.48
2022-08-30T15:39:13.538Z,56.49
2022-08-30T15:41:44.453Z,56.66
2022-08-30T15:44:13.080Z,56.67
2022-08-30T15:46:43.315Z,56.78
2022-08-30T15:49:14.611Z,57.05
2022-08-30T15:51:46.105Z,57.03
2022-08-30T15:54:16.714Z,57.04
2022-08-30T15:56:44.830Z,57.21
2022-08-30T15:59:15.239Z,57.15
2022-08-30T16:01:43.838Z,57.28
2022-08-30T16:04:11.697Z,57.36
2022-08-30T16:06:39.850Z,57.46
2022-08-30T16:09:10.355Z,57.59
2022-08-30T16:11:38.282Z,57.55
2022-08-30T16:14:06.359Z,57.68
2022-08-30T16:16:34.414Z,57.72
2022-08-30T16:19:02.927Z,58.02
2022-08-30T16:21:32.680Z,57.96
2022-08-30T16:24:01.778Z,58.15
2022-08-30T16:26:31.394Z,58.07
2022-08-30T16:29:00.190Z,58.26
2022-08-30T16:31:30.205Z,58.18
2022-08-30T16:34:02.169Z,58.36
2022-08-30T16:36:32.503Z,58.42
2022-08-30T16:39:00.019Z,58.40
2022-08-30T16:41:27.607Z,58.66
2022-08-30T16:43:55.619Z,58.66
2022-08-30T16:46:27.634Z,58.77
2022-08-30T16:48:58.182Z,58.84
2022-08-30T16:51:28.239Z,58.73
2022-08-30T16:53:57.870Z,58.87
2022-08-30T16:56:27.501Z,58.97
2022-08-30T16:59:01.718Z,59.20
2022-08-30T17:01:41.061Z,59.32
2022-08-30T17:04:09.527Z,59.39
2022-08-30T17:06:37.543Z,59.39
2022-08-30T17:09:06.731Z,59.47
2022-08-30T17:11:36.319Z,59.42
2022-08-30T17:14:04.626Z,59.43
2022-08-30T17:16:34.439Z,59.44
2022-08-30T17:19:05.109Z,59.47
2022-08-30T17:21:33.142Z,59.49
2022-08-30T17:24:02.036Z,59.43
2022-08-30T17:26:32.222Z,59.47
2022-08-30T17:29:00.040Z,59.52
2022-08-30T17:31:30.654Z,59.40
2022-08-30T17:36:48.227Z,59.69
2022-08-30T17:39:18.191Z,59.66
2022-08-30T17:41:50.486Z,59.73
2022-08-30T17:44:23.249Z,59.97
2022-08-30T17:46:54.812Z,59.88
2022-08-30T17:49:24.028Z,59.78
2022-08-30T17:51:56.693Z,59.74
2022-08-30T17:54:26.859Z,59.80
2022-08-30T17:56:56.179Z,59.86
2022-08-30T17:59:25.489Z,59.87
2022-08-30T18:01:55.153Z,59.89
2022-08-30T18:04:24.721Z,60.03
2022-08-30T18:06:53.617Z,60.07
2022-08-30T18:09:21.631Z,59.95
2022-08-30T18:11:50.883Z,60.08
2022-08-30T18:14:18.693Z,60.09
2022-08-30T18:16:53.087Z,60.27
2022-08-30T18:19:24.418Z,60.37
2022-08-30T18:21:52.850Z,60.42
2022-08-30T18:24:22.016Z,60.26
2022-08-30T18:26:49.876Z,60.32
2022-08-30T18:29:29.422Z,60.27
2022-08-30T18:32:02.831Z,60.51
2022-08-30T18:34:31.532Z,60.53
2022-08-30T18:36:59.189Z,60.50
2022-08-30T18:39:26.725Z,60.52
2022-08-30T18:41:55.773Z,60.56
2022-08-30T18:44:28.853Z,60.65
2022-08-30T18:47:00.642Z,60.69
2022-08-30T18:49:32.249Z,60.66
2022-08-30T18:52:02.237Z,60.72
2022-08-30T18:54:30.218Z,60.60
2022-08-30T18:56:57.719Z,60.67
2022-08-30T18:59:35.733Z,60.81
2022-08-30T19:02:10.867Z,60.73
2022-08-30T19:04:39.760Z,60.75
2022-08-30T19:07:12.623Z,60.76
2022-08-30T19:09:40.966Z,60.89
2022-08-30T19:12:11.416Z,60.72
2022-08-30T19:14:39.994Z,60.72
2022-08-30T19:17:07.896Z,60.84
2022-08-30T19:19:45.150Z,60.86
2022-08-30T19:22:22.136Z,60.74
2022-08-30T19:24:50.385Z,60.67
2022-08-30T19:27:21.619Z,60.86
2022-08-30T19:30:09.531Z,61.00
2022-08-30T19:32:37.433Z,60.84
2022-08-30T19:35:05.914Z,60.86
2022-08-30T19:37:34.580Z,61.04
2022-08-30T19:40:05.600Z,60.94
2022-08-30T19:42:34.942Z,60.93
2022-08-30T19:45:07.613Z,61.00
2022-08-30T19:47:35.795Z,61.06
2022-08-30T19:50:04.990Z,60.93
2022-08-30T19:52:33.210Z,61.07
2022-08-30T19:55:02.872Z,60.90
2022-08-30T19:57:30.848Z,60.87
2022-08-30T19:59:58.931Z,60.84
2022-08-30T20:02:27.234Z,61.06
2022-08-30T20:04:55.052Z,60.84
2022-08-30T20:07:27.491Z,61.09
2022-08-30T20:09:55.466Z,61.12
2022-08-30T20:12:23.056Z,60.98
2022-08-30T20:14:50.730Z,61.19
2022-08-30T20:17:20.017Z,61.05
2022-08-30T20:19:47.651Z,61.21
2022-08-30T20:22:15.288Z,61.17
2022-08-30T20:24:24.996Z,59.63
2022-08-30T20:24:43.555Z,61.23
2022-08-30T20:27:11.816Z,61.17
2022-08-30T20:29:41.067Z,61.48
2022-08-30T20:32:08.786Z,61.51
2022-08-30T20:34:38.189Z,61.41
2022-08-30T20:37:08.060Z,61.35
2022-08-30T20:39:37.074Z,61.40
2022-08-30T20:42:05.021Z,61.45
2022-08-30T20:44:32.766Z,61.55
2022-08-30T20:47:00.640Z,61.58
2022-08-30T20:49:28.095Z,61.64
2022-08-30T20:51:55.549Z,61.68
2022-08-30T20:54:23.187Z,61.73
2022-08-30T20:56:51.530Z,61.76
2022-08-30T20:59:19.189Z,61.73
2022-08-30T21:01:48.565Z,61.82
2022-08-30T21:04:17.532Z,61.54
2022-08-30T21:06:45.081Z,61.79
2022-08-30T21:09:12.596Z,61.79
2022-08-30T21:11:44.348Z,61.58
2022-08-30T21:14:12.614Z,61.64
2022-08-30T21:16:40.203Z,61.77
2022-08-30T21:19:07.827Z,61.76
2022-08-30T21:21:35.426Z,61.78
2022-08-30T21:24:10.027Z,61.72
2022-08-30T21:26:40.703Z,61.94
2022-08-30T21:29:08.475Z,61.94
2022-08-30T21:31:39.881Z,62.06
2022-08-30T21:34:07.674Z,62.19
2022-08-30T21:36:54.896Z,62.27
2022-08-30T21:39:26.267Z,62.40
2022-08-30T21:41:59.409Z,62.33
2022-08-30T21:44:27.203Z,62.65
2022-08-30T21:46:55.594Z,62.57
2022-08-30T21:49:24.610Z,62.64
2022-08-30T21:51:53.672Z,62.46
2022-08-30T21:54:22.491Z,62.74
2022-08-30T21:56:52.589Z,62.73
2022-08-30T21:59:21.830Z,62.73
2022-08-30T22:01:49.586Z,62.91
2022-08-30T22:04:17.770Z,62.96
2022-08-30T22:06:48.107Z,62.73
2022-08-30T22:09:23.173Z,63.08
2022-08-30T22:11:52.130Z,62.93
2022-08-30T22:14:20.447Z,63.15
2022-08-30T22:16:48.796Z,63.05
2022-08-30T22:19:22.439Z,63.42
2022-08-30T22:21:51.884Z,63.26
2022-08-30T22:24:19.824Z,63.40
2022-08-30T22:26:47.714Z,63.37
2022-08-30T22:29:15.484Z,63.49
2022-08-30T22:31:44.077Z,63.45
2022-08-30T22:34:11.742Z,63.60
2022-08-30T22:36:39.299Z,63.70
2022-08-30T22:39:08.785Z,63.40
2022-08-30T22:41:37.318Z,63.65
2022-08-30T22:44:05.005Z,63.68
2022-08-30T22:46:33.967Z,63.57
2022-08-30T22:49:05.298Z,63.51
2022-08-30T22:51:33.664Z,63.47
2022-08-30T22:54:02.235Z,63.43
2022-08-30T22:56:30.818Z,63.47
2022-08-30T22:58:58.337Z,63.69
2022-08-30T23:01:27.478Z,63.67
2022-08-30T23:03:55.673Z,63.65
2022-08-30T23:06:23.602Z,63.65
2022-08-30T23:08:51.284Z,63.83
2022-08-30T23:11:19.562Z,63.76
2022-08-30T23:13:47.440Z,63.72
2022-08-30T23:16:16.043Z,63.73
2022-08-30T23:18:45.830Z,63.97
2022-08-30T23:21:19.810Z,63.91
2022-08-30T23:24:04.070Z,63.91
2022-08-30T23:26:47.620Z,63.89
2022-08-30T23:29:31.898Z,64.02
2022-08-30T23:32:15.929Z,63.95
2022-08-30T23:35:00.193Z,64.03
2022-08-30T23:37:42.623Z,64.05
2022-08-30T23:40:26.917Z,64.02
2022-08-30T23:43:09.552Z,64.04
2022-08-30T23:45:53.197Z,64.16
2022-08-30T23:48:37.112Z,64.11
2022-08-30T23:51:21.812Z,64.11
2022-08-30T23:54:05.417Z,63.99
2022-08-30T23:56:49.779Z,64.12
2022-08-30T23:59:33.171Z,64.04
